Terminal Aerodrome Forecast
Issued by NWS Charleston, WV

Current Version | Previous Version | Graphics & Text | Print | Product List | Glossary On
Versions: 1 2 3 4 5 6 7 8 9 10 11 12 13 14 15 16 17 18 19 20 21 22 23 24 25 26 27 28 29
183
FTUS41 KRLX 170539
TAFHTS
TAF
KHTS 170539Z 1706/1806 26007G18KT P6SM BKN045
      TEMPO 1706/1710 -SHSN SCT025
     FM171000 25007G15KT P6SM OVC025
     FM171700 27011G20KT P6SM SCT060=

USA.gov is the U.S. government's official web portal to all federal, state and local government web resources and services.